sensor_id;sensor_type;location;lat;lon;timestamp;P1;durP1;ratioP1;P2;durP2;ratioP2
76818;SDS011;65772;51.096;17.006;2023-07-28T00:00:55;4.80;;;1.70;;
76818;SDS011;65772;51.096;17.006;2023-07-28T00:03:25;3.40;;;2.00;;
76818;SDS011;65772;51.096;17.006;2023-07-28T00:05:56;4.20;;;2.00;;
76818;SDS011;65772;51.096;17.006;2023-07-28T00:08:26;4.70;;;2.00;;
76818;SDS011;65772;51.096;17.006;2023-07-28T00:10:57;4.70;;;2.10;;
76818;SDS011;65772;51.096;17.006;2023-07-28T00:13:27;3.60;;;2.00;;
76818;SDS011;65772;51.096;17.006;2023-07-28T00:15:58;3.30;;;1.70;;
76818;SDS011;65772;51.096;17.006;2023-07-28T00:18:28;3.40;;;1.80;;
76818;SDS011;65772;51.096;17.006;2023-07-28T00:20:59;3.90;;;1.90;;
76818;SDS011;65772;51.096;17.006;2023-07-28T00:23:30;4.80;;;2.10;;
76818;SDS011;65772;51.096;17.006;2023-07-28T00:26:00;3.40;;;2.00;;
76818;SDS011;65772;51.096;17.006;2023-07-28T00:28:31;5.00;;;2.20;;
76818;SDS011;65772;51.096;17.006;2023-07-28T00:31:01;5.00;;;2.10;;
76818;SDS011;65772;51.096;17.006;2023-07-28T00:33:32;3.90;;;1.90;;
76818;SDS011;65772;51.096;17.006;2023-07-28T00:36:04;4.90;;;2.00;;
76818;SDS011;65772;51.096;17.006;2023-07-28T00:38:35;3.80;;;1.90;;
76818;SDS011;65772;51.096;17.006;2023-07-28T00:41:05;4.20;;;2.40;;
76818;SDS011;65772;51.096;17.006;2023-07-28T00:43:36;4.50;;;2.00;;
76818;SDS011;65772;51.096;17.006;2023-07-28T00:46:06;5.30;;;2.30;;
76818;SDS011;65772;51.096;17.006;2023-07-28T00:48:37;4.70;;;2.30;;
76818;SDS011;65772;51.096;17.006;2023-07-28T00:53:38;4.80;;;2.20;;
76818;SDS011;65772;51.096;17.006;2023-07-28T00:56:09;3.60;;;2.20;;
76818;SDS011;65772;51.096;17.006;2023-07-28T00:58:41;4.20;;;2.30;;
76818;SDS011;65772;51.096;17.006;2023-07-28T01:01:12;5.40;;;2.70;;
76818;SDS011;65772;51.096;17.006;2023-07-28T01:03:42;4.30;;;2.40;;
76818;SDS011;65772;51.096;17.006;2023-07-28T01:06:15;3.80;;;2.60;;
76818;SDS011;65772;51.096;17.006;2023-07-28T01:08:56;5.80;;;2.90;;
76818;SDS011;65772;51.096;17.006;2023-07-28T01:11:31;4.10;;;2.80;;
76818;SDS011;65772;51.096;17.006;2023-07-28T01:14:02;5.00;;;2.90;;
76818;SDS011;65772;51.096;17.006;2023-07-28T01:16:33;5.10;;;3.10;;
76818;SDS011;65772;51.096;17.006;2023-07-28T01:19:04;4.60;;;3.20;;
76818;SDS011;65772;51.096;17.006;2023-07-28T01:21:34;5.30;;;3.70;;
76818;SDS011;65772;51.096;17.006;2023-07-28T01:24:09;5.10;;;3.40;;
76818;SDS011;65772;51.096;17.006;2023-07-28T01:26:49;6.10;;;3.50;;
76818;SDS011;65772;51.096;17.006;2023-07-28T01:29:20;7.50;;;4.10;;
76818;SDS011;65772;51.096;17.006;2023-07-28T01:31:52;5.90;;;4.00;;
76818;SDS011;65772;51.096;17.006;2023-07-28T01:34:22;6.00;;;3.70;;
76818;SDS011;65772;51.096;17.006;2023-07-28T01:36:53;5.60;;;3.60;;
76818;SDS011;65772;51.096;17.006;2023-07-28T01:39:23;5.80;;;3.90;;
76818;SDS011;65772;51.096;17.006;2023-07-28T01:41:54;5.80;;;3.90;;
76818;SDS011;65772;51.096;17.006;2023-07-28T01:44:24;5.50;;;3.80;;
76818;SDS011;65772;51.096;17.006;2023-07-28T01:46:55;5.10;;;3.80;;
76818;SDS011;65772;51.096;17.006;2023-07-28T01:49:25;6.90;;;3.70;;
76818;SDS011;65772;51.096;17.006;2023-07-28T01:51:56;7.50;;;4.00;;
76818;SDS011;65772;51.096;17.006;2023-07-28T01:54:27;6.50;;;4.00;;
76818;SDS011;65772;51.096;17.006;2023-07-28T01:56:58;5.30;;;3.90;;
76818;SDS011;65772;51.096;17.006;2023-07-28T01:59:29;6.40;;;4.30;;
76818;SDS011;65772;51.096;17.006;2023-07-28T02:01:59;5.90;;;4.40;;
76818;SDS011;65772;51.096;17.006;2023-07-28T02:04:30;5.30;;;4.10;;
76818;SDS011;65772;51.096;17.006;2023-07-28T02:07:00;5.40;;;4.00;;
76818;SDS011;65772;51.096;17.006;2023-07-28T02:09:31;6.20;;;4.10;;
76818;SDS011;65772;51.096;17.006;2023-07-28T02:12:01;5.00;;;3.40;;
76818;SDS011;65772;51.096;17.006;2023-07-28T02:14:32;4.90;;;3.40;;
76818;SDS011;65772;51.096;17.006;2023-07-28T02:17:03;5.40;;;3.40;;
76818;SDS011;65772;51.096;17.006;2023-07-28T02:19:34;5.40;;;3.70;;
76818;SDS011;65772;51.096;17.006;2023-07-28T02:22:04;5.60;;;3.40;;
76818;SDS011;65772;51.096;17.006;2023-07-28T02:24:36;5.40;;;3.70;;
76818;SDS011;65772;51.096;17.006;2023-07-28T02:27:07;4.70;;;3.70;;
76818;SDS011;65772;51.096;17.006;2023-07-28T02:29:37;7.60;;;4.10;;
76818;SDS011;65772;51.096;17.006;2023-07-28T02:32:09;6.00;;;3.90;;
76818;SDS011;65772;51.096;17.006;2023-07-28T02:34:40;5.30;;;3.30;;
76818;SDS011;65772;51.096;17.006;2023-07-28T02:37:10;5.60;;;4.10;;
76818;SDS011;65772;51.096;17.006;2023-07-28T02:39:41;7.10;;;3.80;;
76818;SDS011;65772;51.096;17.006;2023-07-28T02:42:11;5.20;;;3.70;;
76818;SDS011;65772;51.096;17.006;2023-07-28T02:44:42;4.70;;;3.10;;
76818;SDS011;65772;51.096;17.006;2023-07-28T02:47:13;5.90;;;2.90;;
76818;SDS011;65772;51.096;17.006;2023-07-28T02:49:44;6.30;;;3.20;;
76818;SDS011;65772;51.096;17.006;2023-07-28T02:52:14;5.50;;;3.70;;
76818;SDS011;65772;51.096;17.006;2023-07-28T02:54:45;5.60;;;3.50;;
76818;SDS011;65772;51.096;17.006;2023-07-28T02:57:17;5.50;;;3.80;;
76818;SDS011;65772;51.096;17.006;2023-07-28T02:59:48;7.00;;;4.30;;
76818;SDS011;65772;51.096;17.006;2023-07-28T03:02:19;5.50;;;3.80;;
76818;SDS011;65772;51.096;17.006;2023-07-28T03:04:50;5.50;;;3.70;;
76818;SDS011;65772;51.096;17.006;2023-07-28T03:07:24;5.90;;;3.50;;
76818;SDS011;65772;51.096;17.006;2023-07-28T03:09:59;6.70;;;3.90;;
76818;SDS011;65772;51.096;17.006;2023-07-28T03:12:30;5.10;;;3.50;;
76818;SDS011;65772;51.096;17.006;2023-07-28T03:15:01;4.90;;;3.10;;
76818;SDS011;65772;51.096;17.006;2023-07-28T03:17:32;5.50;;;3.20;;
76818;SDS011;65772;51.096;17.006;2023-07-28T03:20:03;5.80;;;3.30;;
76818;SDS011;65772;51.096;17.006;2023-07-28T03:22:34;6.70;;;3.50;;
76818;SDS011;65772;51.096;17.006;2023-07-28T03:25:05;6.30;;;3.10;;
76818;SDS011;65772;51.096;17.006;2023-07-28T03:30:06;4.90;;;3.00;;
76818;SDS011;65772;51.096;17.006;2023-07-28T03:32:39;4.20;;;2.60;;
76818;SDS011;65772;51.096;17.006;2023-07-28T03:35:10;3.70;;;2.60;;
76818;SDS011;65772;51.096;17.006;2023-07-28T03:37:45;4.70;;;2.50;;
76818;SDS011;65772;51.096;17.006;2023-07-28T03:40:16;3.40;;;2.30;;
76818;SDS011;65772;51.096;17.006;2023-07-28T03:42:50;4.50;;;2.30;;
76818;SDS011;65772;51.096;17.006;2023-07-28T03:45:20;3.80;;;2.10;;
76818;SDS011;65772;51.096;17.006;2023-07-28T03:47:51;4.00;;;2.10;;
76818;SDS011;65772;51.096;17.006;2023-07-28T03:50:22;3.90;;;2.40;;
76818;SDS011;65772;51.096;17.006;2023-07-28T03:52:54;3.70;;;2.00;;
76818;SDS011;65772;51.096;17.006;2023-07-28T03:55:25;3.50;;;2.30;;
76818;SDS011;65772;51.096;17.006;2023-07-28T03:57:55;3.90;;;2.00;;
76818;SDS011;65772;51.096;17.006;2023-07-28T04:00:26;3.60;;;2.20;;
76818;SDS011;65772;51.096;17.006;2023-07-28T04:02:58;3.50;;;2.00;;
76818;SDS011;65772;51.096;17.006;2023-07-28T04:05:28;4.70;;;2.20;;
76818;SDS011;65772;51.096;17.006;2023-07-28T04:07:59;2.90;;;1.80;;
76818;SDS011;65772;51.096;17.006;2023-07-28T04:10:29;3.80;;;1.90;;
76818;SDS011;65772;51.096;17.006;2023-07-28T04:13:00;3.10;;;1.90;;
76818;SDS011;65772;51.096;17.006;2023-07-28T04:15:30;3.10;;;1.60;;
76818;SDS011;65772;51.096;17.006;2023-07-28T04:18:01;3.80;;;1.60;;
76818;SDS011;65772;51.096;17.006;2023-07-28T04:20:32;3.40;;;1.90;;
76818;SDS011;65772;51.096;17.006;2023-07-28T04:23:03;5.20;;;1.80;;
76818;SDS011;65772;51.096;17.006;2023-07-28T04:25:36;4.10;;;2.10;;
76818;SDS011;65772;51.096;17.006;2023-07-28T04:28:07;3.00;;;1.90;;
76818;SDS011;65772;51.096;17.006;2023-07-28T04:30:37;3.60;;;1.90;;
76818;SDS011;65772;51.096;17.006;2023-07-28T04:33:10;3.20;;;1.80;;
76818;SDS011;65772;51.096;17.006;2023-07-28T04:35:40;3.70;;;1.80;;
76818;SDS011;65772;51.096;17.006;2023-07-28T04:38:17;3.20;;;1.70;;
76818;SDS011;65772;51.096;17.006;2023-07-28T05:25:05;3.20;;;1.40;;
76818;SDS011;65772;51.096;17.006;2023-07-28T05:27:39;2.00;;;1.10;;
76818;SDS011;65772;51.096;17.006;2023-07-28T05:30:11;2.40;;;1.20;;
76818;SDS011;65772;51.096;17.006;2023-07-28T05:32:41;2.40;;;1.20;;
76818;SDS011;65772;51.096;17.006;2023-07-28T05:35:34;2.80;;;1.40;;
76818;SDS011;65772;51.096;17.006;2023-07-28T05:38:05;2.20;;;1.10;;
76818;SDS011;65772;51.096;17.006;2023-07-28T05:40:35;3.10;;;1.40;;
76818;SDS011;65772;51.096;17.006;2023-07-28T05:43:06;8.00;;;4.20;;
76818;SDS011;65772;51.096;17.006;2023-07-28T05:45:36;2.60;;;1.20;;
76818;SDS011;65772;51.096;17.006;2023-07-28T05:48:07;4.40;;;1.40;;
76818;SDS011;65772;51.096;17.006;2023-07-28T05:50:39;2.00;;;1.00;;
76818;SDS011;65772;51.096;17.006;2023-07-28T05:53:09;3.60;;;1.10;;
76818;SDS011;65772;51.096;17.006;2023-07-28T05:55:41;2.70;;;1.30;;
76818;SDS011;65772;51.096;17.006;2023-07-28T05:58:12;2.60;;;1.10;;
76818;SDS011;65772;51.096;17.006;2023-07-28T06:00:43;2.50;;;1.10;;
76818;SDS011;65772;51.096;17.006;2023-07-28T06:03:22;2.70;;;1.10;;
76818;SDS011;65772;51.096;17.006;2023-07-28T06:06:02;3.20;;;1.20;;
76818;SDS011;65772;51.096;17.006;2023-07-28T06:08:33;2.40;;;1.30;;
76818;SDS011;65772;51.096;17.006;2023-07-28T06:11:05;3.20;;;1.60;;
76818;SDS011;65772;51.096;17.006;2023-07-28T06:13:35;3.70;;;1.70;;
76818;SDS011;65772;51.096;17.006;2023-07-28T06:20:20;3.20;;;1.30;;
76818;SDS011;65772;51.096;17.006;2023-07-28T06:22:51;1.80;;;0.80;;
76818;SDS011;65772;51.096;17.006;2023-07-28T06:25:21;2.60;;;1.00;;
76818;SDS011;65772;51.096;17.006;2023-07-28T06:27:52;4.10;;;1.30;;
76818;SDS011;65772;51.096;17.006;2023-07-28T06:30:22;2.60;;;1.20;;
76818;SDS011;65772;51.096;17.006;2023-07-28T06:32:53;2.90;;;1.10;;
76818;SDS011;65772;51.096;17.006;2023-07-28T06:35:24;2.20;;;1.10;;
76818;SDS011;65772;51.096;17.006;2023-07-28T06:37:55;2.30;;;0.90;;
76818;SDS011;65772;51.096;17.006;2023-07-28T06:40:26;2.00;;;1.10;;
76818;SDS011;65772;51.096;17.006;2023-07-28T06:42:57;1.30;;;0.80;;
76818;SDS011;65772;51.096;17.006;2023-07-28T06:45:28;3.70;;;1.00;;
76818;SDS011;65772;51.096;17.006;2023-07-28T06:47:58;1.70;;;0.90;;
76818;SDS011;65772;51.096;17.006;2023-07-28T06:50:30;2.10;;;0.90;;
76818;SDS011;65772;51.096;17.006;2023-07-28T06:53:00;1.70;;;0.80;;
76818;SDS011;65772;51.096;17.006;2023-07-28T06:55:31;1.60;;;0.80;;
76818;SDS011;65772;51.096;17.006;2023-07-28T06:58:05;2.40;;;0.90;;
76818;SDS011;65772;51.096;17.006;2023-07-28T07:00:37;3.20;;;0.70;;
76818;SDS011;65772;51.096;17.006;2023-07-28T07:03:08;1.80;;;0.70;;
76818;SDS011;65772;51.096;17.006;2023-07-28T07:05:40;2.50;;;0.70;;
76818;SDS011;65772;51.096;17.006;2023-07-28T07:08:12;2.00;;;1.00;;
76818;SDS011;65772;51.096;17.006;2023-07-28T07:10:48;1.80;;;0.80;;
76818;SDS011;65772;51.096;17.006;2023-07-28T07:13:19;2.40;;;0.70;;
76818;SDS011;65772;51.096;17.006;2023-07-28T07:15:49;1.40;;;0.80;;
76818;SDS011;65772;51.096;17.006;2023-07-28T07:18:21;1.40;;;0.70;;
76818;SDS011;65772;51.096;17.006;2023-07-28T07:20:51;2.60;;;0.90;;
76818;SDS011;65772;51.096;17.006;2023-07-28T07:23:22;1.90;;;0.90;;
76818;SDS011;65772;51.096;17.006;2023-07-28T07:25:52;1.80;;;0.70;;
76818;SDS011;65772;51.096;17.006;2023-07-28T07:28:23;1.50;;;0.70;;
76818;SDS011;65772;51.096;17.006;2023-07-28T07:30:55;1.70;;;0.70;;
76818;SDS011;65772;51.096;17.006;2023-07-28T07:33:25;2.40;;;1.10;;
76818;SDS011;65772;51.096;17.006;2023-07-28T07:35:56;3.10;;;0.80;;
76818;SDS011;65772;51.096;17.006;2023-07-28T07:38:26;1.80;;;0.80;;
76818;SDS011;65772;51.096;17.006;2023-07-28T07:40:57;2.10;;;0.80;;
76818;SDS011;65772;51.096;17.006;2023-07-28T07:43:29;1.70;;;0.70;;
76818;SDS011;65772;51.096;17.006;2023-07-28T07:46:00;2.10;;;0.60;;
76818;SDS011;65772;51.096;17.006;2023-07-28T07:48:30;2.40;;;0.70;;
76818;SDS011;65772;51.096;17.006;2023-07-28T07:51:01;1.70;;;0.80;;
76818;SDS011;65772;51.096;17.006;2023-07-28T07:53:32;1.70;;;0.70;;
76818;SDS011;65772;51.096;17.006;2023-07-28T07:56:04;3.10;;;1.00;;
76818;SDS011;65772;51.096;17.006;2023-07-28T07:58:36;1.70;;;0.80;;
76818;SDS011;65772;51.096;17.006;2023-07-28T08:01:06;1.80;;;0.90;;
76818;SDS011;65772;51.096;17.006;2023-07-28T08:03:38;1.60;;;0.80;;
76818;SDS011;65772;51.096;17.006;2023-07-28T08:06:09;1.70;;;0.70;;
76818;SDS011;65772;51.096;17.006;2023-07-28T08:08:40;2.60;;;0.80;;
76818;SDS011;65772;51.096;17.006;2023-07-28T08:11:12;1.40;;;0.60;;
76818;SDS011;65772;51.096;17.006;2023-07-28T08:13:42;1.80;;;0.80;;
76818;SDS011;65772;51.096;17.006;2023-07-28T08:16:16;3.10;;;1.20;;
76818;SDS011;65772;51.096;17.006;2023-07-28T08:18:46;1.90;;;0.80;;
76818;SDS011;65772;51.096;17.006;2023-07-28T08:21:17;1.90;;;1.00;;
76818;SDS011;65772;51.096;17.006;2023-07-28T08:23:48;2.30;;;1.00;;
76818;SDS011;65772;51.096;17.006;2023-07-28T08:26:18;3.20;;;0.80;;
76818;SDS011;65772;51.096;17.006;2023-07-28T08:28:49;2.70;;;0.70;;
76818;SDS011;65772;51.096;17.006;2023-07-28T08:31:19;2.30;;;0.70;;
76818;SDS011;65772;51.096;17.006;2023-07-28T08:33:50;3.00;;;1.10;;
76818;SDS011;65772;51.096;17.006;2023-07-28T08:36:21;1.80;;;0.80;;
76818;SDS011;65772;51.096;17.006;2023-07-28T08:38:51;2.10;;;0.80;;
76818;SDS011;65772;51.096;17.006;2023-07-28T08:41:22;2.00;;;0.90;;
76818;SDS011;65772;51.096;17.006;2023-07-28T08:43:53;2.50;;;0.90;;
76818;SDS011;65772;51.096;17.006;2023-07-28T08:46:25;2.00;;;1.00;;
76818;SDS011;65772;51.096;17.006;2023-07-28T08:48:56;2.10;;;0.90;;
76818;SDS011;65772;51.096;17.006;2023-07-28T08:51:27;1.70;;;0.80;;
76818;SDS011;65772;51.096;17.006;2023-07-28T08:53:57;2.30;;;0.80;;
76818;SDS011;65772;51.096;17.006;2023-07-28T08:56:28;3.20;;;1.00;;
76818;SDS011;65772;51.096;17.006;2023-07-28T08:58:59;3.20;;;0.90;;
76818;SDS011;65772;51.096;17.006;2023-07-28T09:01:30;1.80;;;0.90;;
76818;SDS011;65772;51.096;17.006;2023-07-28T09:04:00;1.60;;;0.80;;
76818;SDS011;65772;51.096;17.006;2023-07-28T09:06:38;1.90;;;0.90;;
76818;SDS011;65772;51.096;17.006;2023-07-28T09:09:13;2.40;;;1.20;;
76818;SDS011;65772;51.096;17.006;2023-07-28T09:11:47;3.50;;;1.50;;
76818;SDS011;65772;51.096;17.006;2023-07-28T09:14:19;2.80;;;1.10;;
76818;SDS011;65772;51.096;17.006;2023-07-28T09:16:51;2.20;;;1.10;;
76818;SDS011;65772;51.096;17.006;2023-07-28T09:19:22;2.40;;;1.10;;
76818;SDS011;65772;51.096;17.006;2023-07-28T09:21:58;2.00;;;0.90;;
76818;SDS011;65772;51.096;17.006;2023-07-28T09:24:31;2.30;;;1.20;;
76818;SDS011;65772;51.096;17.006;2023-07-28T09:27:02;2.00;;;1.00;;
76818;SDS011;65772;51.096;17.006;2023-07-28T09:29:33;2.10;;;1.30;;
76818;SDS011;65772;51.096;17.006;2023-07-28T09:34:36;2.20;;;1.10;;
76818;SDS011;65772;51.096;17.006;2023-07-28T09:37:07;2.80;;;1.30;;
76818;SDS011;65772;51.096;17.006;2023-07-28T09:39:40;2.30;;;1.40;;
76818;SDS011;65772;51.096;17.006;2023-07-28T09:42:11;3.40;;;1.20;;
76818;SDS011;65772;51.096;17.006;2023-07-28T09:44:42;2.60;;;1.40;;
76818;SDS011;65772;51.096;17.006;2023-07-28T09:47:13;6.10;;;3.00;;
76818;SDS011;65772;51.096;17.006;2023-07-28T09:49:45;2.70;;;1.50;;
76818;SDS011;65772;51.096;17.006;2023-07-28T09:52:17;3.40;;;1.40;;
76818;SDS011;65772;51.096;17.006;2023-07-28T09:54:52;2.40;;;1.40;;
76818;SDS011;65772;51.096;17.006;2023-07-28T09:57:25;2.70;;;1.50;;
76818;SDS011;65772;51.096;17.006;2023-07-28T09:59:59;2.80;;;1.60;;
76818;SDS011;65772;51.096;17.006;2023-07-28T10:02:39;4.10;;;1.50;;
76818;SDS011;65772;51.096;17.006;2023-07-28T10:05:10;3.20;;;1.70;;
76818;SDS011;65772;51.096;17.006;2023-07-28T10:07:43;2.70;;;1.40;;
76818;SDS011;65772;51.096;17.006;2023-07-28T10:10:15;3.30;;;1.30;;
76818;SDS011;65772;51.096;17.006;2023-07-28T10:12:47;3.30;;;1.50;;
76818;SDS011;65772;51.096;17.006;2023-07-28T10:15:19;3.40;;;1.40;;
76818;SDS011;65772;51.096;17.006;2023-07-28T10:17:56;9.20;;;6.50;;
76818;SDS011;65772;51.096;17.006;2023-07-28T10:20:33;4.00;;;1.70;;
76818;SDS011;65772;51.096;17.006;2023-07-28T10:23:07;2.50;;;1.50;;
76818;SDS011;65772;51.096;17.006;2023-07-28T10:25:40;4.10;;;1.30;;
76818;SDS011;65772;51.096;17.006;2023-07-28T10:28:28;4.40;;;1.80;;
76818;SDS011;65772;51.096;17.006;2023-07-28T10:31:01;3.00;;;1.60;;
76818;SDS011;65772;51.096;17.006;2023-07-28T10:33:34;3.00;;;1.60;;
76818;SDS011;65772;51.096;17.006;2023-07-28T10:36:15;3.10;;;1.30;;
76818;SDS011;65772;51.096;17.006;2023-07-28T10:38:46;2.40;;;1.20;;
76818;SDS011;65772;51.096;17.006;2023-07-28T10:41:31;3.30;;;1.40;;
76818;SDS011;65772;51.096;17.006;2023-07-28T10:44:05;2.90;;;1.50;;
76818;SDS011;65772;51.096;17.006;2023-07-28T10:46:36;2.60;;;1.50;;
76818;SDS011;65772;51.096;17.006;2023-07-28T10:49:07;3.10;;;1.40;;
76818;SDS011;65772;51.096;17.006;2023-07-28T10:51:38;2.70;;;1.30;;
76818;SDS011;65772;51.096;17.006;2023-07-28T10:54:09;3.10;;;1.30;;
76818;SDS011;65772;51.096;17.006;2023-07-28T10:56:43;2.70;;;1.20;;
76818;SDS011;65772;51.096;17.006;2023-07-28T10:59:14;2.40;;;1.20;;
76818;SDS011;65772;51.096;17.006;2023-07-28T11:01:45;3.00;;;1.20;;
76818;SDS011;65772;51.096;17.006;2023-07-28T11:04:16;3.00;;;1.50;;
76818;SDS011;65772;51.096;17.006;2023-07-28T11:06:49;3.30;;;1.40;;
76818;SDS011;65772;51.096;17.006;2023-07-28T11:09:22;4.40;;;1.30;;
76818;SDS011;65772;51.096;17.006;2023-07-28T11:11:53;2.30;;;1.20;;
76818;SDS011;65772;51.096;17.006;2023-07-28T11:14:23;2.80;;;1.40;;
76818;SDS011;65772;51.096;17.006;2023-07-28T11:16:55;2.40;;;1.20;;
76818;SDS011;65772;51.096;17.006;2023-07-28T11:19:44;2.30;;;1.30;;
76818;SDS011;65772;51.096;17.006;2023-07-28T11:22:17;3.50;;;1.40;;
76818;SDS011;65772;51.096;17.006;2023-07-28T11:24:51;3.60;;;1.40;;
76818;SDS011;65772;51.096;17.006;2023-07-28T11:27:22;5.80;;;1.40;;
76818;SDS011;65772;51.096;17.006;2023-07-28T11:29:53;4.70;;;1.70;;
76818;SDS011;65772;51.096;17.006;2023-07-28T11:32:24;3.00;;;1.30;;
76818;SDS011;65772;51.096;17.006;2023-07-28T11:34:54;3.20;;;1.50;;
76818;SDS011;65772;51.096;17.006;2023-07-28T11:37:31;2.50;;;1.40;;
76818;SDS011;65772;51.096;17.006;2023-07-28T11:40:04;2.70;;;1.40;;
76818;SDS011;65772;51.096;17.006;2023-07-28T11:42:39;3.00;;;1.40;;
76818;SDS011;65772;51.096;17.006;2023-07-28T11:45:13;2.80;;;1.50;;
76818;SDS011;65772;51.096;17.006;2023-07-28T11:50:28;5.60;;;1.30;;
76818;SDS011;65772;51.096;17.006;2023-07-28T11:53:03;3.60;;;1.50;;
76818;SDS011;65772;51.096;17.006;2023-07-28T11:55:34;3.10;;;1.70;;
76818;SDS011;65772;51.096;17.006;2023-07-28T12:00:36;2.80;;;1.40;;
76818;SDS011;65772;51.096;17.006;2023-07-28T12:03:11;2.80;;;1.50;;
76818;SDS011;65772;51.096;17.006;2023-07-28T12:05:58;2.60;;;1.40;;
76818;SDS011;65772;51.096;17.006;2023-07-28T12:08:35;4.30;;;1.40;;
76818;SDS011;65772;51.096;17.006;2023-07-28T12:11:10;3.90;;;1.00;;
76818;SDS011;65772;51.096;17.006;2023-07-28T12:13:49;2.80;;;1.10;;
76818;SDS011;65772;51.096;17.006;2023-07-28T12:16:34;2.60;;;1.20;;
76818;SDS011;65772;51.096;17.006;2023-07-28T12:19:09;2.60;;;1.20;;
76818;SDS011;65772;51.096;17.006;2023-07-28T12:21:40;3.50;;;1.30;;
76818;SDS011;65772;51.096;17.006;2023-07-28T12:24:10;2.10;;;1.10;;
76818;SDS011;65772;51.096;17.006;2023-07-28T12:26:41;3.70;;;1.20;;
76818;SDS011;65772;51.096;17.006;2023-07-28T12:29:11;2.20;;;1.10;;
76818;SDS011;65772;51.096;17.006;2023-07-28T12:31:56;2.00;;;1.30;;
76818;SDS011;65772;51.096;17.006;2023-07-28T12:34:30;3.60;;;1.10;;
76818;SDS011;65772;51.096;17.006;2023-07-28T12:37:18;1.90;;;1.00;;
76818;SDS011;65772;51.096;17.006;2023-07-28T12:40:10;2.30;;;1.00;;
76818;SDS011;65772;51.096;17.006;2023-07-28T12:42:44;2.40;;;1.20;;
76818;SDS011;65772;51.096;17.006;2023-07-28T12:45:18;2.30;;;1.20;;
76818;SDS011;65772;51.096;17.006;2023-07-28T12:47:49;3.00;;;1.10;;
76818;SDS011;65772;51.096;17.006;2023-07-28T12:50:23;2.70;;;1.10;;
76818;SDS011;65772;51.096;17.006;2023-07-28T12:52:54;2.40;;;1.10;;
76818;SDS011;65772;51.096;17.006;2023-07-28T12:55:28;3.10;;;1.10;;
76818;SDS011;65772;51.096;17.006;2023-07-28T12:57:59;4.20;;;1.00;;
76818;SDS011;65772;51.096;17.006;2023-07-28T13:00:30;2.70;;;1.10;;
76818;SDS011;65772;51.096;17.006;2023-07-28T13:03:04;2.00;;;0.90;;
76818;SDS011;65772;51.096;17.006;2023-07-28T13:05:35;2.40;;;1.00;;
76818;SDS011;65772;51.096;17.006;2023-07-28T13:08:07;1.80;;;1.00;;
76818;SDS011;65772;51.096;17.006;2023-07-28T13:10:37;1.90;;;1.10;;
76818;SDS011;65772;51.096;17.006;2023-07-28T13:13:10;2.70;;;1.10;;
76818;SDS011;65772;51.096;17.006;2023-07-28T13:15:42;3.50;;;1.00;;
76818;SDS011;65772;51.096;17.006;2023-07-28T13:18:12;3.20;;;1.30;;
76818;SDS011;65772;51.096;17.006;2023-07-28T13:20:43;2.90;;;1.10;;
76818;SDS011;65772;51.096;17.006;2023-07-28T13:23:13;2.10;;;1.10;;
76818;SDS011;65772;51.096;17.006;2023-07-28T13:25:44;2.10;;;1.10;;
76818;SDS011;65772;51.096;17.006;2023-07-28T13:28:14;4.40;;;1.30;;
76818;SDS011;65772;51.096;17.006;2023-07-28T13:30:45;5.90;;;1.30;;
76818;SDS011;65772;51.096;17.006;2023-07-28T13:33:16;3.20;;;1.20;;
76818;SDS011;65772;51.096;17.006;2023-07-28T13:35:47;2.20;;;1.00;;
76818;SDS011;65772;51.096;17.006;2023-07-28T13:38:17;2.10;;;1.00;;
76818;SDS011;65772;51.096;17.006;2023-07-28T13:40:48;2.40;;;1.20;;
76818;SDS011;65772;51.096;17.006;2023-07-28T13:43:18;2.50;;;0.90;;
76818;SDS011;65772;51.096;17.006;2023-07-28T13:45:49;2.80;;;1.10;;
76818;SDS011;65772;51.096;17.006;2023-07-28T13:48:20;1.70;;;1.00;;
76818;SDS011;65772;51.096;17.006;2023-07-28T13:50:53;1.70;;;0.90;;
76818;SDS011;65772;51.096;17.006;2023-07-28T13:53:24;2.10;;;1.00;;
76818;SDS011;65772;51.096;17.006;2023-07-28T13:55:57;2.50;;;0.80;;
76818;SDS011;65772;51.096;17.006;2023-07-28T13:58:28;3.10;;;1.00;;
76818;SDS011;65772;51.096;17.006;2023-07-28T14:00:59;3.00;;;0.90;;
76818;SDS011;65772;51.096;17.006;2023-07-28T14:03:29;1.70;;;0.80;;
76818;SDS011;65772;51.096;17.006;2023-07-28T14:06:00;2.40;;;1.00;;
76818;SDS011;65772;51.096;17.006;2023-07-28T14:08:30;2.80;;;1.10;;
76818;SDS011;65772;51.096;17.006;2023-07-28T14:11:01;2.50;;;0.80;;
76818;SDS011;65772;51.096;17.006;2023-07-28T14:13:31;2.60;;;1.00;;
76818;SDS011;65772;51.096;17.006;2023-07-28T14:16:02;3.50;;;1.00;;
76818;SDS011;65772;51.096;17.006;2023-07-28T14:18:33;2.10;;;0.90;;
76818;SDS011;65772;51.096;17.006;2023-07-28T14:21:04;2.50;;;1.00;;
76818;SDS011;65772;51.096;17.006;2023-07-28T14:23:35;2.80;;;0.90;;
76818;SDS011;65772;51.096;17.006;2023-07-28T14:26:05;2.00;;;0.90;;
76818;SDS011;65772;51.096;17.006;2023-07-28T14:28:36;2.80;;;0.90;;
76818;SDS011;65772;51.096;17.006;2023-07-28T14:31:06;2.70;;;0.90;;
76818;SDS011;65772;51.096;17.006;2023-07-28T14:33:37;2.40;;;0.80;;
76818;SDS011;65772;51.096;17.006;2023-07-28T14:36:08;1.80;;;0.90;;
76818;SDS011;65772;51.096;17.006;2023-07-28T14:38:38;2.30;;;1.00;;
76818;SDS011;65772;51.096;17.006;2023-07-28T14:41:09;2.40;;;0.80;;
76818;SDS011;65772;51.096;17.006;2023-07-28T14:43:40;1.60;;;0.90;;
76818;SDS011;65772;51.096;17.006;2023-07-28T14:46:10;2.50;;;0.90;;
76818;SDS011;65772;51.096;17.006;2023-07-28T14:48:41;1.70;;;0.90;;
76818;SDS011;65772;51.096;17.006;2023-07-28T14:51:12;4.60;;;1.70;;
76818;SDS011;65772;51.096;17.006;2023-07-28T14:53:42;1.90;;;0.90;;
76818;SDS011;65772;51.096;17.006;2023-07-28T14:56:15;3.30;;;0.80;;
76818;SDS011;65772;51.096;17.006;2023-07-28T14:58:48;2.60;;;1.30;;
76818;SDS011;65772;51.096;17.006;2023-07-28T15:01:21;1.70;;;0.90;;
76818;SDS011;65772;51.096;17.006;2023-07-28T15:03:51;2.20;;;0.90;;
76818;SDS011;65772;51.096;17.006;2023-07-28T15:06:22;2.40;;;1.00;;
76818;SDS011;65772;51.096;17.006;2023-07-28T15:08:53;3.10;;;1.40;;
76818;SDS011;65772;51.096;17.006;2023-07-28T15:11:23;3.50;;;0.80;;
76818;SDS011;65772;51.096;17.006;2023-07-28T15:13:54;2.70;;;0.90;;
76818;SDS011;65772;51.096;17.006;2023-07-28T15:16:24;1.60;;;0.70;;
76818;SDS011;65772;51.096;17.006;2023-07-28T15:18:55;1.80;;;0.80;;
76818;SDS011;65772;51.096;17.006;2023-07-28T15:21:25;1.50;;;0.80;;
76818;SDS011;65772;51.096;17.006;2023-07-28T15:23:57;1.90;;;0.80;;
76818;SDS011;65772;51.096;17.006;2023-07-28T15:26:27;7.80;;;3.30;;
76818;SDS011;65772;51.096;17.006;2023-07-28T15:28:58;5.40;;;2.00;;
76818;SDS011;65772;51.096;17.006;2023-07-28T15:31:29;6.70;;;1.40;;
76818;SDS011;65772;51.096;17.006;2023-07-28T15:36:29;2.30;;;1.10;;
76818;SDS011;65772;51.096;17.006;2023-07-28T15:39:00;3.60;;;1.60;;
76818;SDS011;65772;51.096;17.006;2023-07-28T15:41:31;3.10;;;1.40;;
76818;SDS011;65772;51.096;17.006;2023-07-28T15:44:02;3.20;;;1.10;;
76818;SDS011;65772;51.096;17.006;2023-07-28T15:46:33;2.00;;;0.90;;
76818;SDS011;65772;51.096;17.006;2023-07-28T15:49:03;3.30;;;1.10;;
76818;SDS011;65772;51.096;17.006;2023-07-28T15:51:34;2.30;;;1.20;;
76818;SDS011;65772;51.096;17.006;2023-07-28T15:54:05;2.70;;;1.30;;
76818;SDS011;65772;51.096;17.006;2023-07-28T15:56:35;3.60;;;1.30;;
76818;SDS011;65772;51.096;17.006;2023-07-28T15:59:06;3.30;;;1.10;;
76818;SDS011;65772;51.096;17.006;2023-07-28T16:01:36;4.10;;;1.30;;
76818;SDS011;65772;51.096;17.006;2023-07-28T16:04:07;1.90;;;1.00;;